sensor_id;sensor_type;location;lat;lon;timestamp;pressure;altitude;pressure_sealevel;temperature;humidity
76623;BME280;73145;48.170;16.350;2023-10-13T00:00:29;99847.56;;;19.03;59.49
76623;BME280;73145;48.170;16.350;2023-10-13T00:02:58;99836.22;;;19.01;59.69
76623;BME280;73145;48.170;16.350;2023-10-13T00:05:30;99818.66;;;18.99;59.95
76623;BME280;73145;48.170;16.350;2023-10-13T00:07:57;99847.25;;;18.96;60.24
76623;BME280;73145;48.170;16.350;2023-10-13T00:10:27;99854.41;;;18.92;60.78
76623;BME280;73145;48.170;16.350;2023-10-13T00:12:52;99829.50;;;18.90;60.74
76623;BME280;73145;48.170;16.350;2023-10-13T00:15:18;99819.25;;;18.87;60.80
76623;BME280;73145;48.170;16.350;2023-10-13T00:17:46;99805.19;;;18.85;61.19
76623;BME280;73145;48.170;16.350;2023-10-13T00:20:12;99810.94;;;18.84;61.10
76623;BME280;73145;48.170;16.350;2023-10-13T00:22:53;99802.00;;;18.83;61.40
76623;BME280;73145;48.170;16.350;2023-10-13T00:25:18;99813.97;;;18.82;61.61
76623;BME280;73145;48.170;16.350;2023-10-13T00:27:51;99812.06;;;18.83;61.68
76623;BME280;73145;48.170;16.350;2023-10-13T00:30:17;99821.81;;;18.84;61.69
76623;BME280;73145;48.170;16.350;2023-10-13T00:32:49;99800.06;;;18.84;61.84
76623;BME280;73145;48.170;16.350;2023-10-13T00:35:28;99793.34;;;18.81;61.96
76623;BME280;73145;48.170;16.350;2023-10-13T00:37:55;99791.44;;;18.82;61.82
76623;BME280;73145;48.170;16.350;2023-10-13T00:40:22;99807.75;;;18.82;61.94
76623;BME280;73145;48.170;16.350;2023-10-13T00:42:58;99803.91;;;18.83;62.04
76623;BME280;73145;48.170;16.350;2023-10-13T00:45:43;99798.78;;;18.81;61.56
76623;BME280;73145;48.170;16.350;2023-10-13T00:48:09;99795.59;;;18.79;61.96
76623;BME280;73145;48.170;16.350;2023-10-13T00:50:41;99798.31;;;18.79;61.96
76623;BME280;73145;48.170;16.350;2023-10-13T00:53:07;99790.16;;;18.79;61.73
76623;BME280;73145;48.170;16.350;2023-10-13T00:55:33;99793.19;;;18.77;61.96
76623;BME280;73145;48.170;16.350;2023-10-13T00:58:02;99787.75;;;18.77;62.07
76623;BME280;73145;48.170;16.350;2023-10-13T01:00:32;99793.50;;;18.76;62.44
76623;BME280;73145;48.170;16.350;2023-10-13T01:02:57;99791.09;;;18.74;62.31
76623;BME280;73145;48.170;16.350;2023-10-13T01:05:31;99795.75;;;18.74;62.56
76623;BME280;73145;48.170;16.350;2023-10-13T01:08:01;99826.72;;;18.73;62.51
76623;BME280;73145;48.170;16.350;2023-10-13T01:10:27;99836.28;;;18.70;62.89
76623;BME280;73145;48.170;16.350;2023-10-13T01:12:52;99853.69;;;18.69;63.05
76623;BME280;73145;48.170;16.350;2023-10-13T01:15:19;99816.00;;;18.68;62.99
76623;BME280;73145;48.170;16.350;2023-10-13T01:17:47;99785.16;;;18.64;63.36
76623;BME280;73145;48.170;16.350;2023-10-13T01:20:14;99782.56;;;18.59;63.49
76623;BME280;73145;48.170;16.350;2023-10-13T01:22:50;99785.91;;;18.56;63.73
76623;BME280;73145;48.170;16.350;2023-10-13T01:25:24;99780.31;;;18.52;64.21
76623;BME280;73145;48.170;16.350;2023-10-13T01:27:53;99770.88;;;18.50;64.27
76623;BME280;73145;48.170;16.350;2023-10-13T01:30:19;99774.69;;;18.49;64.43
76623;BME280;73145;48.170;16.350;2023-10-13T01:32:54;99773.09;;;18.48;64.67
76623;BME280;73145;48.170;16.350;2023-10-13T01:35:20;99791.78;;;18.49;64.60
76623;BME280;73145;48.170;16.350;2023-10-13T01:37:51;99784.13;;;18.51;64.79
76623;BME280;73145;48.170;16.350;2023-10-13T01:40:16;99775.19;;;18.51;64.84
76623;BME280;73145;48.170;16.350;2023-10-13T01:42:46;99778.03;;;18.45;64.90
76623;BME280;73145;48.170;16.350;2023-10-13T01:45:11;99775.16;;;18.42;65.46
76623;BME280;73145;48.170;16.350;2023-10-13T01:47:39;99782.31;;;18.38;65.79
76623;BME280;73145;48.170;16.350;2023-10-13T01:50:06;99786.47;;;18.35;66.08
76623;BME280;73145;48.170;16.350;2023-10-13T01:52:39;99784.06;;;18.34;66.35
76623;BME280;73145;48.170;16.350;2023-10-13T01:55:07;99784.38;;;18.32;66.48
76623;BME280;73145;48.170;16.350;2023-10-13T01:57:35;99787.09;;;18.32;66.74
76623;BME280;73145;48.170;16.350;2023-10-13T02:00:01;99792.50;;;18.32;66.67
76623;BME280;73145;48.170;16.350;2023-10-13T02:02:43;99796.81;;;18.33;66.54
76623;BME280;73145;48.170;16.350;2023-10-13T02:05:10;99805.47;;;18.35;66.69
76623;BME280;73145;48.170;16.350;2023-10-13T02:07:35;99811.06;;;18.39;66.57
76623;BME280;73145;48.170;16.350;2023-10-13T02:10:05;99795.56;;;18.39;66.60
76623;BME280;73145;48.170;16.350;2023-10-13T02:12:31;99791.25;;;18.38;66.45
76623;BME280;73145;48.170;16.350;2023-10-13T02:15:13;99778.81;;;18.37;66.27
76623;BME280;73145;48.170;16.350;2023-10-13T02:17:52;99795.88;;;18.38;66.75
76623;BME280;73145;48.170;16.350;2023-10-13T02:20:18;99783.91;;;18.39;66.89
76623;BME280;73145;48.170;16.350;2023-10-13T02:22:43;99777.38;;;18.40;66.74
76623;BME280;73145;48.170;16.350;2023-10-13T02:25:18;99786.00;;;18.42;66.81
76623;BME280;73145;48.170;16.350;2023-10-13T02:28:03;99787.91;;;18.41;66.87
76623;BME280;73145;48.170;16.350;2023-10-13T02:30:37;99783.28;;;18.42;67.10
76623;BME280;73145;48.170;16.350;2023-10-13T02:33:03;99784.91;;;18.43;67.03
76623;BME280;73145;48.170;16.350;2023-10-13T02:35:31;99785.38;;;18.45;66.93
76623;BME280;73145;48.170;16.350;2023-10-13T02:38:06;99790.50;;;18.46;66.84
76623;BME280;73145;48.170;16.350;2023-10-13T02:40:37;99798.63;;;18.46;67.07
76623;BME280;73145;48.170;16.350;2023-10-13T02:43:03;99794.00;;;18.47;66.88
76623;BME280;73145;48.170;16.350;2023-10-13T02:45:31;99793.69;;;18.49;66.79
76623;BME280;73145;48.170;16.350;2023-10-13T02:47:57;99799.94;;;18.49;67.02
76623;BME280;73145;48.170;16.350;2023-10-13T02:50:41;99794.19;;;18.51;66.84
76623;BME280;73145;48.170;16.350;2023-10-13T02:53:10;99794.19;;;18.51;66.56
76623;BME280;73145;48.170;16.350;2023-10-13T02:55:52;99795.00;;;18.51;66.85
76623;BME280;73145;48.170;16.350;2023-10-13T02:58:18;99800.09;;;18.53;66.62
76623;BME280;73145;48.170;16.350;2023-10-13T03:00:44;99809.03;;;18.53;66.73
76623;BME280;73145;48.170;16.350;2023-10-13T03:03:10;99815.28;;;18.54;66.78
76623;BME280;73145;48.170;16.350;2023-10-13T03:05:35;99818.00;;;18.54;67.14
76623;BME280;73145;48.170;16.350;2023-10-13T03:08:05;99809.84;;;18.54;66.71
76623;BME280;73145;48.170;16.350;2023-10-13T03:10:31;99796.28;;;18.54;67.00
76623;BME280;73145;48.170;16.350;2023-10-13T03:12:57;99799.31;;;18.52;67.06
76623;BME280;73145;48.170;16.350;2023-10-13T03:15:23;99796.91;;;18.51;66.92
76623;BME280;73145;48.170;16.350;2023-10-13T03:17:55;99797.22;;;18.49;67.52
76623;BME280;73145;48.170;16.350;2023-10-13T03:20:20;99801.03;;;18.48;67.22
76623;BME280;73145;48.170;16.350;2023-10-13T03:22:55;99803.75;;;18.48;67.02
76623;BME280;73145;48.170;16.350;2023-10-13T03:25:21;99796.41;;;18.49;67.02
76623;BME280;73145;48.170;16.350;2023-10-13T03:27:54;99805.66;;;18.48;67.15
76623;BME280;73145;48.170;16.350;2023-10-13T03:30:20;99811.91;;;18.48;67.02
76623;BME280;73145;48.170;16.350;2023-10-13T03:32:55;99809.97;;;18.49;67.03
76623;BME280;73145;48.170;16.350;2023-10-13T03:35:22;99812.69;;;18.49;67.14
76623;BME280;73145;48.170;16.350;2023-10-13T03:37:51;99825.16;;;18.50;67.02
76623;BME280;73145;48.170;16.350;2023-10-13T03:40:17;99818.63;;;18.51;66.92
76623;BME280;73145;48.170;16.350;2023-10-13T03:42:45;99816.69;;;18.51;66.88
76623;BME280;73145;48.170;16.350;2023-10-13T03:45:24;99817.50;;;18.52;66.82
76623;BME280;73145;48.170;16.350;2023-10-13T03:47:50;99815.59;;;18.52;67.08
76623;BME280;73145;48.170;16.350;2023-10-13T03:50:21;99835.38;;;18.53;67.38
76623;BME280;73145;48.170;16.350;2023-10-13T03:52:57;99841.63;;;18.53;67.24
76623;BME280;73145;48.170;16.350;2023-10-13T03:55:26;99835.69;;;18.51;67.34
76623;BME280;73145;48.170;16.350;2023-10-13T03:57:55;99839.53;;;18.50;67.28
76623;BME280;73145;48.170;16.350;2023-10-13T04:00:22;99839.03;;;18.48;67.56
76623;BME280;73145;48.170;16.350;2023-10-13T04:02:53;99843.66;;;18.48;67.82
76623;BME280;73145;48.170;16.350;2023-10-13T04:05:33;99845.09;;;18.45;67.98
76623;BME280;73145;48.170;16.350;2023-10-13T04:08:11;99832.63;;;18.44;68.10
76623;BME280;73145;48.170;16.350;2023-10-13T04:10:56;99838.38;;;18.42;67.93
76623;BME280;73145;48.170;16.350;2023-10-13T04:13:22;99847.94;;;18.40;68.13
76623;BME280;73145;48.170;16.350;2023-10-13T04:16:09;99850.97;;;18.38;68.45
76623;BME280;73145;48.170;16.350;2023-10-13T04:18:50;99842.03;;;18.38;68.70
76623;BME280;73145;48.170;16.350;2023-10-13T04:21:25;99836.91;;;18.36;68.69
76623;BME280;73145;48.170;16.350;2023-10-13T04:24:12;99849.97;;;18.34;68.75
76623;BME280;73145;48.170;16.350;2023-10-13T04:26:44;99847.28;;;18.34;69.07
76623;BME280;73145;48.170;16.350;2023-10-13T04:29:29;99850.47;;;18.36;68.86
76623;BME280;73145;48.170;16.350;2023-10-13T04:32:14;99851.59;;;18.35;69.17
76623;BME280;73145;48.170;16.350;2023-10-13T04:34:40;99844.06;;;18.32;69.46
76623;BME280;73145;48.170;16.350;2023-10-13T04:37:12;99838.78;;;18.27;69.49
76623;BME280;73145;48.170;16.350;2023-10-13T04:40:14;99855.50;;;18.21;69.63
76623;BME280;73145;48.170;16.350;2023-10-13T04:42:42;99837.41;;;18.16;70.38
76623;BME280;73145;48.170;16.350;2023-10-13T04:45:23;99823.66;;;18.12;70.28
76623;BME280;73145;48.170;16.350;2023-10-13T04:47:59;99824.47;;;18.13;70.54
76623;BME280;73145;48.170;16.350;2023-10-13T04:50:48;99818.06;;;18.09;70.79
76623;BME280;73145;48.170;16.350;2023-10-13T04:53:18;99826.19;;;18.09;70.67
76623;BME280;73145;48.170;16.350;2023-10-13T04:56:00;99820.75;;;18.09;71.19
76623;BME280;73145;48.170;16.350;2023-10-13T04:58:30;99815.03;;;18.10;71.08
76623;BME280;73145;48.170;16.350;2023-10-13T05:01:05;99820.94;;;18.12;70.92
76623;BME280;73145;48.170;16.350;2023-10-13T05:04:08;99823.03;;;18.15;70.89
76623;BME280;73145;48.170;16.350;2023-10-13T05:06:47;99822.41;;;18.19;70.71
76623;BME280;73145;48.170;16.350;2023-10-13T05:09:31;99823.72;;;18.21;70.46
76623;BME280;73145;48.170;16.350;2023-10-13T05:12:15;99827.75;;;18.24;70.47
